createdAt,value
2018-09-29T00:00:22.417Z,1024.56
2018-09-29T00:01:22.397Z,1024.57
2018-09-29T00:02:22.355Z,1024.55
2018-09-29T00:03:22.492Z,1024.53
2018-09-29T00:04:22.291Z,1024.49
2018-09-29T00:05:22.321Z,1024.53
2018-09-29T00:06:22.225Z,1024.50
2018-09-29T00:07:22.194Z,1024.51
2018-09-29T00:08:23.106Z,1024.44
2018-09-29T00:09:22.181Z,1024.40
2018-09-29T00:10:22.179Z,1024.42
2018-09-29T00:11:22.060Z,1024.42
2018-09-29T00:12:22.031Z,1024.47
2018-09-29T00:13:21.999Z,1024.46
2018-09-29T00:14:22.038Z,1024.49
2018-09-29T00:15:21.932Z,1024.50
2018-09-29T00:16:21.902Z,1024.56
2018-09-29T00:17:21.870Z,1024.61
2018-09-29T00:18:21.833Z,1024.63
2018-09-29T00:19:21.865Z,1024.67
2018-09-29T00:20:21.771Z,1024.68
2018-09-29T00:21:21.737Z,1024.70
2018-09-29T00:22:21.717Z,1024.67
2018-09-29T00:23:22.626Z,1024.71
2018-09-29T00:24:22.176Z,1024.73
2018-09-29T00:25:21.607Z,1024.76
2018-09-29T00:26:21.575Z,1024.73
2018-09-29T00:27:21.546Z,1024.71
2018-09-29T00:28:21.515Z,1024.72
2018-09-29T00:29:21.517Z,1024.72
2018-09-29T00:30:21.490Z,1024.70
2018-09-29T00:31:21.415Z,1024.68
2018-09-29T00:32:21.428Z,1024.73
2018-09-29T00:33:21.348Z,1024.73
2018-09-29T00:34:21.317Z,1024.67
2018-09-29T00:35:21.330Z,1024.67
2018-09-29T00:36:21.253Z,1024.67
2018-09-29T00:37:21.218Z,1024.69
2018-09-29T00:38:21.185Z,1024.68
2018-09-29T00:39:21.155Z,1024.68
2018-09-29T00:40:21.661Z,1024.69
2018-09-29T00:41:21.092Z,1024.72
2018-09-29T00:42:21.608Z,1024.69
2018-09-29T00:43:21.608Z,1024.65
2018-09-29T00:44:21.610Z,1024.71
2018-09-29T00:45:21.008Z,1024.73
2018-09-29T00:46:20.929Z,1024.73
2018-09-29T00:47:20.895Z,1024.74
2018-09-29T00:48:20.921Z,1024.70
2018-09-29T00:49:20.831Z,1024.74
2018-09-29T00:50:21.610Z,1024.74
2018-09-29T00:51:20.767Z,1024.75
2018-09-29T00:52:20.737Z,1024.72
2018-09-29T00:53:20.749Z,1024.72
2018-09-29T00:54:21.615Z,1024.78
2018-09-29T00:55:21.613Z,1024.79
2018-09-29T00:56:20.656Z,1024.78
2018-09-29T00:57:21.109Z,1024.78
2018-09-29T00:58:21.110Z,1024.81
2018-09-29T00:59:20.553Z,1024.80
2018-09-29T01:00:20.474Z,1024.84
2018-09-29T01:01:20.497Z,1024.86
2018-09-29T01:02:21.115Z,1024.87
2018-09-29T01:03:20.384Z,1024.85
2018-09-29T01:04:20.407Z,1024.88
2018-09-29T01:05:21.019Z,1024.88
2018-09-29T01:06:20.280Z,1024.88
2018-09-29T01:07:20.250Z,1024.86
2018-09-29T01:08:21.113Z,1024.95
2018-09-29T01:09:20.667Z,1024.93
2018-09-29T01:10:20.150Z,1024.94
2018-09-29T01:11:20.125Z,1024.98
2018-09-29T01:12:20.090Z,1024.96
2018-09-29T01:13:20.116Z,1024.92
2018-09-29T01:14:20.615Z,1024.91
2018-09-29T01:15:20.057Z,1024.92
2018-09-29T01:16:19.959Z,1024.90
2018-09-29T01:17:19.927Z,1024.89
2018-09-29T01:18:19.951Z,1024.90
2018-09-29T01:19:19.861Z,1024.89
2018-09-29T01:20:19.829Z,1024.93
2018-09-29T01:21:20.614Z,1024.93
2018-09-29T01:22:19.772Z,1024.92
2018-09-29T01:23:19.784Z,1024.86
2018-09-29T01:24:19.702Z,1024.83
2018-09-29T01:25:19.669Z,1024.83
2018-09-29T01:26:19.637Z,1024.83
2018-09-29T01:27:20.113Z,1024.83
2018-09-29T01:28:19.617Z,1024.85
2018-09-29T01:29:19.582Z,1024.86
2018-09-29T01:30:19.506Z,1024.86
2018-09-29T01:31:20.117Z,1024.84
2018-09-29T01:32:19.443Z,1024.82
2018-09-29T01:33:19.413Z,1024.80
2018-09-29T01:34:19.421Z,1024.77
2018-09-29T01:35:20.117Z,1024.77
2018-09-29T01:36:20.112Z,1024.80
2018-09-29T01:37:20.119Z,1024.80
2018-09-29T01:38:20.119Z,1024.78
2018-09-29T01:39:19.665Z,1024.78
2018-09-29T01:40:19.671Z,1024.77
2018-09-29T01:41:19.193Z,1024.77
2018-09-29T01:42:19.120Z,1024.78
2018-09-29T01:43:19.086Z,1024.77
2018-09-29T01:44:19.616Z,1024.77
2018-09-29T01:45:19.075Z,1024.77
2018-09-29T01:46:19.617Z,1024.77
2018-09-29T01:47:19.618Z,1024.79
2018-09-29T01:48:19.619Z,1024.83
2018-09-29T01:49:19.617Z,1024.86
2018-09-29T01:50:19.173Z,1024.88
2018-09-29T01:51:18.829Z,1024.86
2018-09-29T01:52:18.794Z,1024.88
2018-09-29T01:53:18.764Z,1024.87
2018-09-29T01:54:19.621Z,1024.89
2018-09-29T01:55:19.170Z,1024.91
2018-09-29T01:56:18.664Z,1024.90
2018-09-29T01:57:18.631Z,1024.90
2018-09-29T01:58:19.115Z,1024.90
2018-09-29T01:59:19.121Z,1024.93
2018-09-29T02:00:18.579Z,1024.94
2018-09-29T02:01:18.500Z,1024.95
2018-09-29T02:02:18.476Z,1024.95
2018-09-29T02:03:18.440Z,1024.96
2018-09-29T02:04:19.120Z,1024.98
2018-09-29T02:05:18.422Z,1024.95
2018-09-29T02:06:19.120Z,1025.00
2018-09-29T02:07:18.306Z,1025.01
2018-09-29T02:08:18.270Z,1024.99
2018-09-29T02:09:18.241Z,1025.01
2018-09-29T02:10:18.251Z,1024.99
2018-09-29T02:11:18.174Z,1024.97
2018-09-29T02:12:18.147Z,1024.97
2018-09-29T02:13:18.111Z,1024.99
2018-09-29T02:14:18.074Z,1025.01
2018-09-29T02:15:18.097Z,1025.01
2018-09-29T02:16:18.012Z,1025.00
2018-09-29T02:17:17.979Z,1025.01
2018-09-29T02:18:18.630Z,1024.99
2018-09-29T02:19:18.619Z,1024.97
2018-09-29T02:20:17.925Z,1024.98
2018-09-29T02:21:17.845Z,1024.91
2018-09-29T02:22:18.621Z,1024.93
2018-09-29T02:23:17.824Z,1024.96
2018-09-29T02:24:17.748Z,1024.98
2018-09-29T02:25:18.620Z,1025.03
2018-09-29T02:26:17.684Z,1025.01
2018-09-29T02:27:17.650Z,1025.00
2018-09-29T02:28:17.672Z,1024.94
2018-09-29T02:29:17.589Z,1024.97
2018-09-29T02:30:17.553Z,1024.95
2018-09-29T02:31:18.123Z,1024.98
2018-09-29T02:32:18.118Z,1025.00
2018-09-29T02:33:17.498Z,1024.99
2018-09-29T02:34:17.675Z,1025.04
2018-09-29T02:35:18.118Z,1025.05
2018-09-29T02:36:18.119Z,1025.06
2018-09-29T02:37:17.678Z,1025.08
2018-09-29T02:38:18.118Z,1025.07
2018-09-29T02:39:17.254Z,1025.05
2018-09-29T02:40:17.678Z,1025.08
2018-09-29T02:41:17.185Z,1025.09
2018-09-29T02:42:18.129Z,1025.14
2018-09-29T02:43:17.121Z,1025.11
2018-09-29T02:44:17.624Z,1025.10
2018-09-29T02:45:17.104Z,1025.10
2018-09-29T02:46:17.621Z,1025.11
2018-09-29T02:47:16.990Z,1025.11
2018-09-29T02:48:16.958Z,1025.14
2018-09-29T02:49:16.982Z,1025.15
2018-09-29T02:50:17.170Z,1025.17
2018-09-29T02:51:17.665Z,1025.15
2018-09-29T02:52:16.826Z,1025.15
2018-09-29T02:53:16.812Z,1025.17
2018-09-29T02:54:16.802Z,1025.18
2018-09-29T02:55:16.724Z,1025.21
2018-09-29T02:56:17.620Z,1025.19
2018-09-29T02:57:16.658Z,1025.23
2018-09-29T02:58:16.673Z,1025.21
2018-09-29T02:59:16.646Z,1025.23
2018-09-29T03:00:16.563Z,1025.26
2018-09-29T03:01:16.683Z,1025.24
2018-09-29T03:02:17.173Z,1025.26
2018-09-29T03:03:16.459Z,1025.24
2018-09-29T03:04:16.470Z,1025.21
2018-09-29T03:05:17.121Z,1025.19
2018-09-29T03:06:16.360Z,1025.19
2018-09-29T03:07:16.366Z,1025.20
2018-09-29T03:08:16.294Z,1025.21
2018-09-29T03:09:16.315Z,1025.23
2018-09-29T03:10:16.230Z,1025.25
2018-09-29T03:11:16.240Z,1025.25
2018-09-29T03:12:16.213Z,1025.25
2018-09-29T03:13:17.126Z,1025.24
2018-09-29T03:14:16.636Z,1025.22
2018-09-29T03:15:16.069Z,1025.25
2018-09-29T03:16:16.082Z,1025.26
2018-09-29T03:17:16.040Z,1025.19
2018-09-29T03:18:15.960Z,1025.21
2018-09-29T03:19:16.686Z,1025.19
2018-09-29T03:20:15.902Z,1025.21
2018-09-29T03:21:16.623Z,1025.21
2018-09-29T03:22:16.189Z,1025.17
2018-09-29T03:23:16.700Z,1025.22
2018-09-29T03:24:16.626Z,1025.22
2018-09-29T03:25:16.638Z,1025.25
2018-09-29T03:26:16.627Z,1025.27
2018-09-29T03:27:16.679Z,1025.27
2018-09-29T03:28:16.624Z,1025.26
2018-09-29T03:29:16.130Z,1025.24
2018-09-29T03:30:15.563Z,1025.25
2018-09-29T03:31:16.123Z,1025.25
2018-09-29T03:32:15.544Z,1025.27
2018-09-29T03:33:16.122Z,1025.25
2018-09-29T03:34:15.718Z,1025.26
2018-09-29T03:35:16.124Z,1025.28
2018-09-29T03:36:16.122Z,1025.28
2018-09-29T03:37:16.178Z,1025.30
2018-09-29T03:38:15.335Z,1025.35
2018-09-29T03:39:15.348Z,1025.33
2018-09-29T03:40:16.125Z,1025.37
2018-09-29T03:41:16.136Z,1025.36
2018-09-29T03:42:16.127Z,1025.39
2018-09-29T03:43:15.201Z,1025.38
2018-09-29T03:44:15.757Z,1025.34
2018-09-29T03:45:15.062Z,1025.39
2018-09-29T03:46:15.027Z,1025.39
2018-09-29T03:47:14.996Z,1025.36
2018-09-29T03:48:15.010Z,1025.37
2018-09-29T03:49:14.968Z,1025.38
2018-09-29T03:50:15.639Z,1025.38
2018-09-29T03:51:15.656Z,1025.34
2018-09-29T03:52:14.875Z,1025.38
2018-09-29T03:53:15.626Z,1025.36
2018-09-29T03:54:14.807Z,1025.37
2018-09-29T03:55:14.724Z,1025.39
2018-09-29T03:56:15.642Z,1025.39
2018-09-29T03:57:15.628Z,1025.39
2018-09-29T03:58:15.129Z,1025.39
2018-09-29T03:59:14.628Z,1025.44
2018-09-29T04:00:14.557Z,1025.40
2018-09-29T04:01:15.126Z,1025.39
2018-09-29T04:02:14.690Z,1025.42
2018-09-29T04:03:15.130Z,1025.45
2018-09-29T04:04:14.672Z,1025.45
2018-09-29T04:05:15.126Z,1025.46
2018-09-29T04:06:14.359Z,1025.48
2018-09-29T04:07:14.321Z,1025.47
2018-09-29T04:08:15.126Z,1025.47
2018-09-29T04:09:14.302Z,1025.44
2018-09-29T04:10:15.128Z,1025.47
2018-09-29T04:11:14.190Z,1025.50
2018-09-29T04:12:14.157Z,1025.56
2018-09-29T04:13:14.193Z,1025.54
2018-09-29T04:14:14.626Z,1025.59
2018-09-29T04:15:14.629Z,1025.54
2018-09-29T04:16:14.021Z,1025.52
2018-09-29T04:17:14.625Z,1025.53
2018-09-29T04:18:14.183Z,1025.54
2018-09-29T04:19:14.680Z,1025.55
2018-09-29T04:20:13.889Z,1025.59
2018-09-29T04:21:13.895Z,1025.61
2018-09-29T04:22:13.821Z,1025.58
2018-09-29T04:23:13.784Z,1025.65
2018-09-29T04:24:13.750Z,1025.64
2018-09-29T04:25:13.729Z,1025.66
2018-09-29T04:26:13.726Z,1025.69
2018-09-29T04:27:13.648Z,1025.71
2018-09-29T04:28:14.127Z,1025.75
2018-09-29T04:29:13.583Z,1025.76
2018-09-29T04:30:14.129Z,1025.77
2018-09-29T04:31:13.704Z,1025.83
2018-09-29T04:32:13.525Z,1025.78
2018-09-29T04:33:14.131Z,1025.83
2018-09-29T04:34:14.130Z,1025.78
2018-09-29T04:35:14.128Z,1025.79
2018-09-29T04:36:13.390Z,1025.80
2018-09-29T04:37:13.311Z,1025.81
2018-09-29T04:38:13.286Z,1025.81
2018-09-29T04:39:14.134Z,1025.81
2018-09-29T04:40:13.734Z,1025.85
2018-09-29T04:41:13.185Z,1025.83
2018-09-29T04:42:13.189Z,1025.83
2018-09-29T04:43:13.674Z,1025.83
2018-09-29T04:44:13.077Z,1025.85
2018-09-29T04:45:13.041Z,1025.84
2018-09-29T04:46:13.195Z,1025.84
2018-09-29T04:47:13.628Z,1025.89
2018-09-29T04:48:12.985Z,1025.87
2018-09-29T04:49:12.972Z,1025.84
2018-09-29T04:50:13.627Z,1025.84
2018-09-29T04:51:12.848Z,1025.85
2018-09-29T04:52:13.184Z,1025.86
2018-09-29T04:53:12.818Z,1025.88
2018-09-29T04:54:12.739Z,1025.90
2018-09-29T04:55:12.750Z,1025.87
2018-09-29T04:56:12.690Z,1025.91
2018-09-29T04:57:13.628Z,1025.87
2018-09-29T04:58:12.603Z,1025.89
2018-09-29T04:59:12.688Z,1025.86
2018-09-29T05:00:13.129Z,1025.85
2018-09-29T05:01:13.129Z,1025.87
2018-09-29T05:02:12.467Z,1025.83
2018-09-29T05:03:13.135Z,1025.84
2018-09-29T05:04:12.682Z,1025.84
2018-09-29T05:05:13.054Z,1025.86
2018-09-29T05:06:12.331Z,1025.89
2018-09-29T05:07:12.684Z,1025.92
2018-09-29T05:08:12.268Z,1025.92
2018-09-29T05:09:12.261Z,1025.94
2018-09-29T05:10:12.198Z,1025.92
2018-09-29T05:11:12.163Z,1025.96
2018-09-29T05:12:12.192Z,1025.96
2018-09-29T05:13:12.096Z,1025.92
2018-09-29T05:14:12.102Z,1025.93
2018-09-29T05:15:12.031Z,1026.00
2018-09-29T05:16:11.996Z,1025.98
2018-09-29T05:17:12.185Z,1025.96
2018-09-29T05:18:11.930Z,1025.96
2018-09-29T05:19:11.940Z,1025.97
2018-09-29T05:20:11.867Z,1025.99
2018-09-29T05:21:11.825Z,1025.96
2018-09-29T05:22:11.800Z,1026.00
2018-09-29T05:23:11.809Z,1025.98
2018-09-29T05:24:11.743Z,1025.99
2018-09-29T05:25:11.693Z,1026.00
2018-09-29T05:26:11.697Z,1025.97
2018-09-29T05:27:11.646Z,1026.02
2018-09-29T05:28:11.629Z,1025.97
2018-09-29T05:29:11.557Z,1025.96
2018-09-29T05:30:11.532Z,1025.96
2018-09-29T05:31:11.493Z,1025.95
2018-09-29T05:32:11.453Z,1025.96
2018-09-29T05:33:11.471Z,1025.96
2018-09-29T05:34:11.393Z,1025.95
2018-09-29T05:35:11.355Z,1025.94
2018-09-29T05:36:11.319Z,1025.93
2018-09-29T05:37:11.292Z,1025.93
2018-09-29T05:38:11.291Z,1025.95
2018-09-29T05:39:11.224Z,1025.94
2018-09-29T05:40:11.189Z,1025.94
2018-09-29T05:41:11.153Z,1025.97
2018-09-29T05:42:11.148Z,1025.96
2018-09-29T05:43:11.128Z,1026.02
2018-09-29T05:44:11.057Z,1026.02
2018-09-29T05:45:11.024Z,1026.03
2018-09-29T05:46:10.985Z,1026.04
2018-09-29T05:47:11.007Z,1026.02
2018-09-29T05:48:10.934Z,1025.98
2018-09-29T05:49:10.888Z,1026.00
2018-09-29T05:50:10.857Z,1026.02
2018-09-29T05:51:10.818Z,1026.02
2018-09-29T05:52:10.825Z,1026.04
2018-09-29T05:53:10.793Z,1026.03
2018-09-29T05:54:10.719Z,1026.09
2018-09-29T05:55:10.680Z,1026.09
2018-09-29T05:56:10.655Z,1026.13
2018-09-29T05:57:10.619Z,1026.08
2018-09-29T05:58:10.642Z,1026.10
2018-09-29T05:59:10.552Z,1026.12
2018-09-29T06:00:10.572Z,1026.14
2018-09-29T06:01:10.483Z,1026.16
2018-09-29T06:02:10.448Z,1026.16
2018-09-29T06:03:10.492Z,1026.17
2018-09-29T06:04:10.480Z,1026.15
2018-09-29T06:05:10.358Z,1026.19
2018-09-29T06:06:10.353Z,1026.16
2018-09-29T06:07:10.348Z,1026.21
2018-09-29T06:08:10.292Z,1026.22
2018-09-29T06:09:10.259Z,1026.21
2018-09-29T06:10:10.183Z,1026.21
2018-09-29T06:11:10.151Z,1026.22
2018-09-29T06:12:10.117Z,1026.19
2018-09-29T06:13:10.665Z,1026.16
2018-09-29T06:14:10.098Z,1026.13
2018-09-29T06:15:10.092Z,1026.13
2018-09-29T06:16:09.985Z,1026.11
2018-09-29T06:17:09.954Z,1026.14
2018-09-29T06:18:09.924Z,1026.12
2018-09-29T06:19:09.887Z,1026.13
2018-09-29T06:20:10.201Z,1026.14
2018-09-29T06:21:09.819Z,1026.14
2018-09-29T06:22:09.786Z,1026.17
2018-09-29T06:23:09.753Z,1026.18
2018-09-29T06:24:10.635Z,1026.14
2018-09-29T06:25:09.733Z,1026.19
2018-09-29T06:26:09.655Z,1026.22
2018-09-29T06:27:09.713Z,1026.24
2018-09-29T06:28:09.631Z,1026.24
2018-09-29T06:29:09.602Z,1026.24
2018-09-29T06:30:09.549Z,1026.25
2018-09-29T06:31:09.599Z,1026.26
2018-09-29T06:32:09.484Z,1026.30
2018-09-29T06:33:09.424Z,1026.31
2018-09-29T06:34:09.442Z,1026.34
2018-09-29T06:35:09.379Z,1026.36
2018-09-29T06:36:09.406Z,1026.36
2018-09-29T06:37:09.294Z,1026.40
2018-09-29T06:38:09.262Z,1026.42
2018-09-29T06:39:09.229Z,1026.46
2018-09-29T06:40:10.138Z,1026.41
2018-09-29T06:41:09.202Z,1026.45
2018-09-29T06:42:09.134Z,1026.48
2018-09-29T06:43:09.096Z,1026.46
2018-09-29T06:44:09.167Z,1026.49
2018-09-29T06:45:09.033Z,1026.51
2018-09-29T06:46:09.000Z,1026.54
2018-09-29T06:47:08.965Z,1026.55
2018-09-29T06:48:08.948Z,1026.59
2018-09-29T06:49:08.966Z,1026.60
2018-09-29T06:50:08.872Z,1026.61
2018-09-29T06:51:08.884Z,1026.63
2018-09-29T06:52:08.805Z,1026.61
2018-09-29T06:53:08.773Z,1026.66
2018-09-29T06:54:08.740Z,1026.66
2018-09-29T06:55:08.733Z,1026.65
2018-09-29T06:56:08.722Z,1026.66
2018-09-29T06:57:08.662Z,1026.68
2018-09-29T06:58:08.610Z,1026.68
2018-09-29T06:59:08.578Z,1026.69
2018-09-29T07:00:08.564Z,1026.65
2018-09-29T07:01:08.563Z,1026.62
2018-09-29T07:02:08.486Z,1026.63
2018-09-29T07:03:08.499Z,1026.65
2018-09-29T07:04:08.419Z,1026.64
2018-09-29T07:05:08.397Z,1026.66
2018-09-29T07:06:08.402Z,1026.71
2018-09-29T07:07:09.140Z,1026.67
2018-09-29T07:08:08.296Z,1026.70
2018-09-29T07:09:08.263Z,1026.68
2018-09-29T07:10:08.227Z,1026.71
2018-09-29T07:11:08.242Z,1026.68
2018-09-29T07:12:08.167Z,1026.67
2018-09-29T07:13:08.132Z,1026.67
2018-09-29T07:14:08.103Z,1026.64
2018-09-29T07:15:08.111Z,1026.63
2018-09-29T07:16:08.081Z,1026.63
2018-09-29T07:17:08.008Z,1026.66
2018-09-29T07:18:07.975Z,1026.68
2018-09-29T07:19:07.942Z,1026.68
2018-09-29T07:20:07.910Z,1026.67
2018-09-29T07:21:07.924Z,1026.66
2018-09-29T07:22:07.846Z,1026.68
2018-09-29T07:23:07.894Z,1026.68
2018-09-29T07:24:07.790Z,1026.71
2018-09-29T07:25:07.756Z,1026.68
2018-09-29T07:26:07.728Z,1026.71
2018-09-29T07:27:07.742Z,1026.70
2018-09-29T07:28:07.657Z,1026.73
2018-09-29T07:29:07.624Z,1026.73
2018-09-29T07:30:07.603Z,1026.72
2018-09-29T07:31:07.565Z,1026.73
2018-09-29T07:32:07.576Z,1026.72
2018-09-29T07:33:07.508Z,1026.75
2018-09-29T07:34:07.468Z,1026.73
2018-09-29T07:35:07.441Z,1026.74
2018-09-29T07:36:07.411Z,1026.76
2018-09-29T07:37:07.417Z,1026.73
2018-09-29T07:38:07.354Z,1026.75
2018-09-29T07:39:07.334Z,1026.78
2018-09-29T07:40:07.322Z,1026.80
2018-09-29T07:41:07.253Z,1026.81
2018-09-29T07:42:07.223Z,1026.86
2018-09-29T07:43:07.188Z,1026.82
2018-09-29T07:44:07.161Z,1026.79
2018-09-29T07:45:07.207Z,1026.81
2018-09-29T07:46:07.094Z,1026.81
2018-09-29T07:47:07.072Z,1026.84
2018-09-29T07:48:07.036Z,1026.80
2018-09-29T07:49:07.663Z,1026.80
2018-09-29T07:50:07.020Z,1026.74
2018-09-29T07:51:06.944Z,1026.78
2018-09-29T07:52:06.912Z,1026.78
2018-09-29T07:53:06.930Z,1026.75
2018-09-29T07:54:06.846Z,1026.71
2018-09-29T07:55:06.816Z,1026.71
2018-09-29T07:56:06.847Z,1026.73
2018-09-29T07:57:06.757Z,1026.71
2018-09-29T07:58:06.723Z,1026.74
2018-09-29T07:59:06.739Z,1026.77
2018-09-29T08:00:06.663Z,1026.75
2018-09-29T08:01:07.480Z,1026.77
2018-09-29T08:02:06.600Z,1026.78
2018-09-29T08:03:06.573Z,1026.79
2018-09-29T08:04:06.542Z,1026.81
2018-09-29T08:05:06.521Z,1026.77
2018-09-29T08:06:06.555Z,1026.80
2018-09-29T08:07:06.446Z,1026.78
2018-09-29T08:08:06.415Z,1026.80
2018-09-29T08:09:06.441Z,1026.79
2018-09-29T08:10:06.400Z,1026.77
2018-09-29T08:11:06.346Z,1026.76
2018-09-29T08:12:06.301Z,1026.72
2018-09-29T08:13:06.275Z,1026.78
2018-09-29T08:14:06.263Z,1026.81
2018-09-29T08:15:06.275Z,1026.87
2018-09-29T08:16:06.183Z,1026.87
2018-09-29T08:17:06.146Z,1026.84
2018-09-29T08:18:06.117Z,1026.86
2018-09-29T08:19:06.092Z,1026.87
2018-09-29T08:20:06.102Z,1026.91
2018-09-29T08:21:06.029Z,1026.93
2018-09-29T08:22:06.036Z,1026.93
2018-09-29T08:23:06.556Z,1026.89
2018-09-29T08:24:05.931Z,1026.87
2018-09-29T08:25:05.939Z,1026.89
2018-09-29T08:26:05.929Z,1026.91
2018-09-29T08:27:05.841Z,1026.90
2018-09-29T08:28:05.815Z,1026.85
2018-09-29T08:29:05.789Z,1026.88
2018-09-29T08:30:05.757Z,1026.89
2018-09-29T08:31:05.769Z,1026.87
2018-09-29T08:32:05.690Z,1026.88
2018-09-29T08:33:05.665Z,1026.83
2018-09-29T08:34:05.677Z,1026.83
2018-09-29T08:35:05.652Z,1026.81
2018-09-29T08:36:05.572Z,1026.84
2018-09-29T08:37:05.595Z,1026.81
2018-09-29T08:38:05.511Z,1026.82
2018-09-29T08:39:06.113Z,1026.82
2018-09-29T08:40:05.459Z,1026.81
2018-09-29T08:41:05.435Z,1026.85
2018-09-29T08:42:05.430Z,1026.83
2018-09-29T08:43:05.404Z,1026.87
2018-09-29T08:44:05.333Z,1026.86
2018-09-29T08:45:05.305Z,1026.90
2018-09-29T08:46:05.269Z,1026.94
2018-09-29T08:47:05.338Z,1026.93
2018-09-29T08:48:05.263Z,1026.88
2018-09-29T08:49:05.193Z,1026.90
2018-09-29T08:50:05.165Z,1026.88
2018-09-29T08:51:05.126Z,1026.89
2018-09-29T08:52:05.096Z,1026.86
2018-09-29T08:53:05.133Z,1026.88
2018-09-29T08:54:05.042Z,1026.91
2018-09-29T08:55:05.005Z,1026.94
2018-09-29T08:56:04.979Z,1026.93
2018-09-29T08:57:04.973Z,1026.99
2018-09-29T08:58:04.963Z,1026.99
2018-09-29T08:59:04.890Z,1026.98
2018-09-29T09:00:04.858Z,1026.95
2018-09-29T09:01:04.844Z,1026.97
2018-09-29T09:02:04.799Z,1026.96
2018-09-29T09:03:04.819Z,1026.95
2018-09-29T09:04:04.929Z,1026.93
2018-09-29T09:05:04.717Z,1026.90
2018-09-29T09:06:04.682Z,1026.94
2018-09-29T09:07:04.664Z,1026.91
2018-09-29T09:08:04.678Z,1026.94
2018-09-29T09:09:04.590Z,1026.89
2018-09-29T09:10:04.566Z,1026.94
2018-09-29T09:11:04.539Z,1026.96
2018-09-29T09:12:04.508Z,1026.96
2018-09-29T09:13:04.534Z,1026.95
2018-09-29T09:14:04.493Z,1026.90
2018-09-29T09:15:04.425Z,1026.94
2018-09-29T09:16:05.161Z,1026.91
2018-09-29T09:17:04.373Z,1026.96
2018-09-29T09:18:04.337Z,1026.99
2018-09-29T09:19:04.351Z,1026.95
2018-09-29T09:20:04.326Z,1026.94
2018-09-29T09:21:04.249Z,1026.97
2018-09-29T09:22:04.217Z,1026.96
2018-09-29T09:23:04.241Z,1026.99
2018-09-29T09:24:04.258Z,1027.02
2018-09-29T09:25:04.128Z,1027.01
2018-09-29T09:26:04.129Z,1027.00
2018-09-29T09:27:04.073Z,1027.08
2018-09-29T09:28:04.731Z,1027.01
2018-09-29T09:29:04.056Z,1027.02
2018-09-29T09:30:04.252Z,1027.05
2018-09-29T09:31:03.982Z,1027.05
2018-09-29T09:32:03.960Z,1027.00
2018-09-29T09:33:03.900Z,1026.97
2018-09-29T09:34:03.886Z,1026.92
2018-09-29T09:35:03.912Z,1026.95
2018-09-29T09:36:03.816Z,1026.93
2018-09-29T09:37:03.783Z,1026.96
2018-09-29T09:38:03.753Z,1026.94
2018-09-29T09:39:03.733Z,1026.93
2018-09-29T09:40:03.758Z,1026.94
2018-09-29T09:41:03.667Z,1026.90
2018-09-29T09:42:03.638Z,1026.90
2018-09-29T09:43:03.611Z,1026.87
2018-09-29T09:44:03.582Z,1026.88
2018-09-29T09:45:03.617Z,1026.87
2018-09-29T09:46:03.547Z,1026.85
2018-09-29T09:47:03.497Z,1026.86
2018-09-29T09:48:03.471Z,1026.86
2018-09-29T09:49:03.440Z,1026.89
2018-09-29T09:50:03.462Z,1026.87
2018-09-29T09:51:03.435Z,1026.94
2018-09-29T09:52:03.409Z,1026.90
2018-09-29T09:53:04.160Z,1026.89
2018-09-29T09:54:03.303Z,1026.88
2018-09-29T09:55:03.277Z,1026.89
2018-09-29T09:56:03.284Z,1026.87
2018-09-29T09:57:03.255Z,1026.87
2018-09-29T09:58:03.187Z,1026.83
2018-09-29T09:59:03.162Z,1026.83
2018-09-29T10:00:03.165Z,1026.80
2018-09-29T10:01:03.106Z,1026.85
2018-09-29T10:02:03.132Z,1026.81
2018-09-29T10:03:03.050Z,1026.81
2018-09-29T10:04:03.021Z,1026.81
2018-09-29T10:05:02.998Z,1026.81
2018-09-29T10:06:03.014Z,1026.81
2018-09-29T10:07:02.940Z,1026.79
2018-09-29T10:08:02.952Z,1026.81
2018-09-29T10:09:02.926Z,1026.82
2018-09-29T10:10:02.857Z,1026.79
2018-09-29T10:11:02.850Z,1026.80
2018-09-29T10:12:02.802Z,1026.77
2018-09-29T10:13:02.824Z,1026.78
2018-09-29T10:14:02.745Z,1026.76
2018-09-29T10:15:02.714Z,1026.76
2018-09-29T10:16:02.690Z,1026.82
2018-09-29T10:17:02.659Z,1026.90
2018-09-29T10:18:02.682Z,1026.80
2018-09-29T10:19:02.653Z,1026.83
2018-09-29T10:20:02.578Z,1026.87
2018-09-29T10:21:02.562Z,1026.86
2018-09-29T10:22:02.528Z,1026.79
2018-09-29T10:23:02.533Z,1026.80
2018-09-29T10:24:02.528Z,1026.79
2018-09-29T10:25:02.465Z,1026.81
2018-09-29T10:26:02.414Z,1026.81
2018-09-29T10:27:02.383Z,1026.82
2018-09-29T10:28:02.413Z,1026.75
2018-09-29T10:29:02.332Z,1026.74
2018-09-29T10:30:02.298Z,1026.76
2018-09-29T10:31:02.278Z,1026.73
2018-09-29T10:32:02.244Z,1026.75
2018-09-29T10:33:02.267Z,1026.78
2018-09-29T10:34:02.239Z,1026.77
2018-09-29T10:35:03.687Z,1026.81
2018-09-29T10:36:02.133Z,1026.78
2018-09-29T10:37:02.122Z,1026.81
2018-09-29T10:38:02.117Z,1026.73
2018-09-29T10:39:02.098Z,1026.75
2018-09-29T10:40:02.022Z,1026.71
2018-09-29T10:41:01.993Z,1026.72
2018-09-29T10:42:01.970Z,1026.74
2018-09-29T10:43:01.957Z,1026.67
2018-09-29T10:44:02.073Z,1026.72
2018-09-29T10:45:01.883Z,1026.65
2018-09-29T10:46:01.901Z,1026.64
2018-09-29T10:47:01.832Z,1026.61
2018-09-29T10:48:01.845Z,1026.60
2018-09-29T10:49:01.828Z,1026.62
2018-09-29T10:50:01.758Z,1026.61
2018-09-29T10:51:01.718Z,1026.68
2018-09-29T10:52:01.689Z,1026.71
2018-09-29T10:53:01.716Z,1026.67
2018-09-29T10:54:01.688Z,1026.66
2018-09-29T10:55:01.606Z,1026.68
2018-09-29T10:56:01.578Z,1026.66
2018-09-29T10:57:01.557Z,1026.65
2018-09-29T10:58:01.527Z,1026.58
2018-09-29T10:59:01.561Z,1026.58
2018-09-29T11:00:01.470Z,1026.54
2018-09-29T11:01:01.448Z,1026.55
2018-09-29T11:02:01.460Z,1026.50
2018-09-29T11:03:01.382Z,1026.50
2018-09-29T11:04:01.401Z,1026.45
2018-09-29T11:05:01.392Z,1026.45
2018-09-29T11:06:01.300Z,1026.47
2018-09-29T11:07:01.273Z,1026.45
2018-09-29T11:08:01.298Z,1026.43
2018-09-29T11:09:01.216Z,1026.44
2018-09-29T11:10:01.261Z,1026.44
2018-09-29T11:11:01.163Z,1026.40
2018-09-29T11:12:01.132Z,1026.37
2018-09-29T11:13:01.121Z,1026.37
2018-09-29T11:14:01.085Z,1026.38
2018-09-29T11:15:01.098Z,1026.35
2018-09-29T11:16:01.030Z,1026.30
2018-09-29T11:17:01.001Z,1026.28
2018-09-29T11:18:00.971Z,1026.29
2018-09-29T11:19:00.983Z,1026.28
2018-09-29T11:20:00.973Z,1026.32
2018-09-29T11:21:00.958Z,1026.29
2018-09-29T11:22:00.859Z,1026.27
2018-09-29T11:23:00.836Z,1026.19
2018-09-29T11:24:00.801Z,1026.21
2018-09-29T11:25:00.821Z,1026.17
2018-09-29T11:26:00.785Z,1026.10
2018-09-29T11:27:00.763Z,1026.07
2018-09-29T11:28:00.786Z,1026.02
2018-09-29T11:29:00.685Z,1026.01
2018-09-29T11:30:00.638Z,1026.05
2018-09-29T11:31:00.652Z,1026.04
2018-09-29T11:32:00.586Z,1026.01
2018-09-29T11:33:00.555Z,1026.06
2018-09-29T11:34:00.570Z,1025.99
2018-09-29T11:35:00.506Z,1026.07
2018-09-29T11:36:00.485Z,1025.97
2018-09-29T11:37:00.443Z,1026.01
2018-09-29T11:38:00.467Z,1025.97
2018-09-29T11:39:00.394Z,1025.95
2018-09-29T11:40:00.359Z,1025.97
2018-09-29T11:41:00.348Z,1025.98
2018-09-29T11:42:00.357Z,1025.88
2018-09-29T11:43:00.277Z,1025.91
2018-09-29T11:44:00.251Z,1025.95
2018-09-29T11:45:00.226Z,1025.92
2018-09-29T11:46:00.192Z,1025.88
2018-09-29T11:47:00.218Z,1025.87
2018-09-29T11:48:00.138Z,1025.88
2018-09-29T11:49:00.109Z,1025.86
2018-09-29T11:50:00.128Z,1025.89
2018-09-29T11:51:00.055Z,1025.82
2018-09-29T11:52:00.028Z,1025.87
2018-09-29T11:53:00.011Z,1025.94
2018-09-29T11:54:00.018Z,1025.85
2018-09-29T11:54:59.987Z,1025.85
2018-09-29T11:55:59.964Z,1025.92
2018-09-29T11:56:59.891Z,1025.91
2018-09-29T11:57:59.920Z,1025.85
2018-09-29T11:58:59.835Z,1025.82
2018-09-29T11:59:59.820Z,1025.79
2018-09-29T12:00:59.826Z,1025.81
2018-09-29T12:01:59.950Z,1025.77
2018-09-29T12:02:59.724Z,1025.71
2018-09-29T12:03:59.751Z,1025.67
2018-09-29T12:04:59.672Z,1025.64